Latest Coastal Weather Observations for Nullarbor

IDS60701

Issued at 2:45 pm CDT Sunday 26 October 2014 (issued every 10 minutes, with the page automatically refreshed every 10 minutes)

About coastal observations | Map of coastal stations | Coastal observations for SA | Marine services | Other Formats
Station Details ID: 018106 Name: NULLARBOR Lat: -31.45 Lon: 130.90 Height: 64.0 m
Data from the previous 72 hours. | See also: Recent months at Nullarbor
Date/Time
CDT
Temp

°C
Wind Pressure Rain
since 9am
mm
Weather Cloud Vis
km
Sea
Height
m
Swell
Dir
 
Speed
knots
Gust
knots
hPa Trend Height
m
Period
s
Dir
26/02:30pm 21.9 SW 26 33 1013.5 - 0.2 - - 10 - - - -
26/02:00pm 22.6 SW 23 30 1013.2 - 0.2 - - 10 - - - -
26/01:30pm 22.8 SW 22 28 1013.0 - 0.2 - - 10 - - - -
26/01:00pm 24.1 SW 23 30 1012.8 - 0.2 - - 10 - - - -
26/12:30pm 24.6 SW 23 30 1012.5 - 0.2 - - 10 - - - -
26/12:00pm 23.4 SW 23 29 1012.4 - 0.2 - - 10 - - - -
26/11:30am 23.0 SW 23 28 1012.0 - 0.2 - - 10 - - - -
26/11:00am 22.9 SW 23 32 1011.6 - 0.2 - - 10 - - - -
26/10:38am 23.3 WSW 20 30 1011.3 - 0.2 - - 10 - - - -
26/10:30am 23.3 WSW 21 27 1011.2 - 0.2 - - 10 - - - -
26/10:00am 23.9 WSW 19 25 1010.7 - 0.0 - - 10 - - - -
26/09:30am 24.2 W 17 23 1010.0 - 0.0 - - 10 - - - -
26/09:00am 26.5 W 15 21 1009.5 - 0.6 - - 10 - - - -
26/08:46am 26.6 W 16 26 1009.3 - 0.6 - - 10 - - - -
26/08:30am 26.3 W 16 21 1009.0 - 0.6 - - 10 - - - -
26/08:00am 26.4 N 11 13 1007.9 - 0.6 - - 10 - - - -
26/07:30am 25.5 N 12 15 1007.8 - 0.6 - - 10 - - - -
26/07:00am 25.3 N 11 15 1007.5 - 0.6 - - 10 - - - -
26/06:30am 25.2 N 13 17 1007.6 - 0.6 - - 10 - - - -
26/06:00am 25.4 N 13 17 1007.8 - 0.6 - - 10 - - - -
26/05:30am 25.5 N 12 15 1007.9 - 0.6 - - 10 - - - -
26/05:00am 26.6 N 13 17 1007.6 - 0.6 - - 10 - - - -
26/04:30am 26.2 N 14 16 1007.1 - 0.6 - - 10 - - - -
26/04:00am 25.0 NNE 12 15 1007.2 - 0.6 - - 10 - - - -
26/03:30am 24.9 NNE 11 13 1007.4 - 0.6 - - 10 - - - -
26/03:00am 26.9 NNE 14 17 1007.9 - 0.6 - - 10 - - - -
26/02:30am 27.9 NNE 25 35 1008.6 - 0.6 - Partly cloudy 10 - - - -
26/02:27am 27.9 NNE 27 37 1008.1 - 0.6 - Partly cloudy 10 - - - -
26/02:15am 27.8 N 29 35 1008.9 - 0.6 - Partly cloudy 10 - - - -
26/02:12am 27.8 NNW 33 40 1010.7 - 0.6 - Partly cloudy 10 - - - -
26/02:08am 28.8 NW 18 30 1010.8 - 0.6 - - 10 - - - -
26/02:00am 28.8 NW 15 23 1010.5 - 0.6 - - 10 - - - -
26/01:30am 25.7 N 11 13 1009.5 - 0.6 - - 10 - - - -
26/01:00am 24.9 N 8 10 1009.5 - 0.6 - - 10 - - - -
26/12:30am 24.8 NE 9 11 1010.5 - 0.6 - - 10 - - - -
26/12:07am 25.6 ENE 12 17 1010.9 - 0.6 - Partly cloudy 10 - - - -
26/12:00am 24.9 ENE 13 18 1011.1 - 0.6 Recent precip. Partly cloudy 10 - - - -
 
Date/Time
CDT
Temp

°C
Wind Pressure Rain
since 9am
mm
Weather Cloud Vis
km
Sea
Height
m
Swell
Dir
 
Speed
knots
Gust
knots
hPa Trend Height
m
Period
s
Dir
25/11:47pm 24.3 NNE 13 17 1012.1 - 0.6 - Partly cloudy 10 - - - -
25/11:33pm 24.3 WNW 17 27 1014.3 - 0.4 - Partly cloudy 10 - - - -
25/11:30pm 24.2 WNW 19 27 1014.4 - 0.4 - Partly cloudy 10 - - - -
25/11:25pm 24.0 WNW 20 25 1014.4 - 0.2 - Partly cloudy 10 - - - -
25/11:00pm 25.1 NW 13 18 1014.1 - 0.0 - Partly cloudy 10 - - - -
25/10:31pm 22.3 NW 23 34 1014.4 - 0.0 - - 10 - - - -
25/10:30pm 21.8 NW 25 34 1014.8 - 0.0 - - 10 - - - -
25/10:29pm 21.4 N 13 32 1013.1 - 0.0 - - 10 - - - -
25/10:00pm 20.5 ESE 13 16 1010.5 - 0.0 - - 10 - - - -
25/09:30pm 19.9 ESE 13 17 1010.6 - 0.0 - - 10 - - - -
25/09:00pm 19.9 ESE 14 17 1010.8 - 0.0 - - 10 - - - -
25/08:30pm 19.9 ESE 15 19 1010.7 - 0.0 - - 10 - - - -
25/08:00pm 20.4 ESE 17 22 1010.7 - 0.0 - - 10 - - - -
25/07:30pm 21.5 SE 14 19 1010.8 - 0.0 - - 10 - - - -
25/07:00pm 22.6 SE 15 20 1011.3 - 0.0 - - 10 - - - -
25/06:30pm 23.7 ESE 17 21 1011.4 - 0.0 - - 10 - - - -
25/06:00pm 23.0 ESE 16 20 1011.8 - 0.0 - - 10 - - - -
25/05:30pm 23.6 SE 15 19 1012.2 - 0.0 - - 10 - - - -
25/05:00pm 24.8 SE 15 19 1012.4 - 0.0 - - 10 - - - -
25/04:30pm 26.1 ESE 16 19 1012.6 - 0.0 - - 10 - - - -
25/04:00pm 26.4 SE 16 20 1013.2 - 0.0 - - 10 - - - -
25/03:30pm 27.6 SE 15 18 1013.6 - 0.0 - - 10 - - - -
25/03:00pm 29.9 SE 13 18 1014.1 - 0.0 - - 10 - - - -
25/02:30pm 31.0 E 9 16 1014.6 - 0.0 - - 10 - - - -
25/02:00pm 29.9 E 9 14 1014.9 - 0.0 - - 10 - - - -
25/01:30pm 29.5 E 8 13 1015.3 - 0.0 - - 10 - - - -
25/01:00pm 29.3 SE 10 17 1015.7 - 0.0 - - 10 - - - -
25/12:30pm 28.0 ENE 10 14 1016.5 - 0.0 - - 10 - - - -
25/12:00pm 26.3 E 9 13 1016.9 - 0.0 - - 10 - - - -
25/11:30am 24.8 ENE 9 13 1017.5 - 0.0 - - 10 - - - -
25/11:00am 22.7 E 9 16 1017.8 - 0.0 - - 10 - - - -
25/10:30am 20.9 NE 7 12 1018.8 - 0.0 - - 10 - - - -
25/10:00am 19.2 N 8 10 1019.5 - 0.0 - - 10 - - - -
25/09:30am 18.2 NNE 5 7 1019.8 - 0.0 - Partly cloudy 10 - - - -
25/09:14am 17.7 ENE 8 11 1019.3 - 0.0 - Partly cloudy 10 - - - -
25/09:00am 17.7 E 8 11 1018.9 - 0.0 - Partly cloudy 10 - - - -
25/08:30am 17.4 E 10 13 1018.5 - 0.0 - Cloudy 10 - - - -
25/08:00am 16.7 E 11 13 1018.4 - 0.0 - Cloudy 10 - - - -
25/07:30am 16.2 E 11 14 1018.2 - 0.0 - Cloudy 10 - - - -
25/07:00am 16.2 ESE 10 13 1018.1 - 0.0 - Cloudy 10 - - - -
25/06:30am 16.2 SE 7 12 1018.1 - 0.0 - Cloudy 10 - - - -
25/06:00am 16.2 ESE 9 12 1017.8 - 0.0 - Cloudy 10 - - - -
25/05:30am 16.2 ESE 7 11 1017.8 - 0.0 - Cloudy 10 - - - -
25/05:00am 16.3 ESE 7 9 1017.7 - 0.0 - Cloudy 10 - - - -
25/04:30am 16.4 ESE 7 9 1018.0 - 0.0 - Cloudy 10 - - - -
25/04:00am 16.5 ESE 8 10 1018.0 - 0.0 - Cloudy 10 - - - -
25/03:30am 16.7 SSE 9 12 1017.9 - 0.0 - Cloudy 10 - - - -
25/03:00am 16.5 SSE 8 12 1018.3 - 0.0 - Cloudy 10 - - - -
25/02:30am 16.6 SSE 11 14 1018.5 - 0.0 - Cloudy 10 - - - -
25/02:00am 16.6 S 10 13 1018.5 - 0.0 - Cloudy 10 - - - -
25/01:30am 16.7 SSE 11 15 1018.4 - 0.0 - Cloudy 10 - - - -
25/01:00am 16.6 SE 11 14 1018.4 - 0.0 - Cloudy 10 - - - -
25/12:30am 16.6 SSE 11 15 1018.5 - 0.0 - Cloudy - - - - -
25/12:00am 16.5 SSE 12 15 1018.3 - 0.0 - Cloudy 10 - - - -
 
Date/Time
CDT
Temp

°C
Wind Pressure Rain
since 9am
mm
Weather Cloud Vis
km
Sea
Height
m
Swell
Dir
 
Speed
knots
Gust
knots
hPa Trend Height
m
Period
s
Dir
24/11:30pm 16.9 SSE 11 15 1018.5 - 0.0 - Cloudy 10 - - - -
24/11:00pm 16.6 SSE 9 12 1018.7 - 0.0 - Cloudy - - - - -
24/10:40pm 15.9 S 8 10 1018.6 - 0.0 - Partly cloudy - - - - -
24/10:30pm 15.3 SSE 7 8 1018.6 - 0.0 - Partly cloudy - - - - -
24/10:00pm 15.5 S 6 7 1018.7 - 0.0 - - - - - - -
24/09:30pm 16.2 S 6 8 1018.6 - 0.0 - - 10 - - - -
24/09:00pm 16.8 S 8 9 1018.3 - 0.0 - - 10 - - - -
24/08:30pm 17.4 S 9 11 1018.0 - 0.0 - - 10 - - - -
24/08:00pm 18.1 S 11 15 1017.6 - 0.0 - - 10 - - - -
24/07:30pm 19.1 S 14 17 1017.0 - 0.0 - - 10 - - - -
24/07:00pm 20.4 S 14 17 1016.8 - 0.0 - - 10 - - - -
24/06:30pm 21.1 S 15 18 1016.3 - 0.0 - - 10 - - - -
24/06:00pm 22.2 S 15 19 1016.3 - 0.0 - - 10 - - - -
24/05:30pm 22.9 S 15 18 1016.2 - 0.0 - - 10 - - - -
24/05:00pm 23.3 S 15 18 1016.3 - 0.0 - - 10 - - - -
24/04:30pm 23.7 S 15 20 1016.2 - 0.0 - - 10 - - - -
24/04:00pm 24.4 S 14 18 1016.5 - 0.0 - - 10 - - - -
24/03:30pm 26.0 S 13 18 1016.5 - 0.0 - - 10 - - - -
24/03:00pm 25.9 S 15 20 1016.5 - 0.0 - - 10 - - - -
24/02:30pm 26.1 S 16 23 1016.4 - 0.0 - - 10 - - - -
24/02:00pm 26.6 S 17 24 1016.2 - 0.0 - - 10 - - - -
24/01:30pm 26.4 S 19 24 1016.2 - 0.0 - - 10 - - - -
24/01:00pm 27.0 S 17 22 1016.4 - 0.0 - - 10 - - - -
24/12:30pm 26.8 SSE 16 21 1016.4 - 0.0 - - 10 - - - -
24/12:00pm 27.1 S 16 20 1016.6 - 0.0 - - 10 - - - -
24/11:30am 25.9 SSE 16 20 1016.5 - 0.0 - - 10 - - - -
24/11:00am 25.8 SSE 14 19 1016.4 - 0.0 - - 10 - - - -
24/10:30am 23.9 S 14 18 1016.0 - 0.0 - - 10 - - - -
24/10:00am 23.7 SSE 14 18 1015.9 - 0.0 - - 10 - - - -
24/09:30am 22.4 S 15 19 1015.7 - 0.0 - - 10 - - - -
24/09:00am 21.0 S 13 17 1015.4 - 0.0 - - 10 - - - -
24/08:30am 19.5 S 9 11 1015.2 - 0.0 - - 10 - - - -
24/08:00am 16.7 SSW 5 6 1014.9 - 0.0 - - 10 - - - -
24/07:30am 14.4 S 7 8 1014.4 - 0.0 - - 10 - - - -
24/07:00am 14.4 SSE 8 9 1014.0 - 0.0 - - 10 - - - -
24/06:30am 15.0 S 6 7 1013.8 - 0.0 - - 10 - - - -
24/06:00am 16.1 S 6 8 1013.3 - 0.0 - - 10 - - - -
24/05:30am 17.6 SSE 7 10 1013.0 - 0.0 - - 10 - - - -
24/05:00am 18.8 S 9 11 1012.8 - 0.0 - - 10 - - - -
24/04:30am 20.2 SW 12 17 1012.5 - 0.0 - - 10 - - - -
24/04:00am 22.1 WSW 12 15 1012.1 - 0.0 - - 10 - - - -
24/03:30am 18.2 N 8 9 1011.1 - 0.0 - - 10 - - - -
24/03:00am 19.1 N 7 9 1011.1 - 0.0 - - 10 - - - -
24/02:30am 20.0 N 7 7 1011.3 - 0.0 - - 10 - - - -
24/02:00am 22.0 N 8 10 1011.4 - 0.0 - - 10 - - - -
24/01:30am 21.4 N 8 10 1011.7 - 0.0 - - 10 - - - -
24/01:00am 21.1 N 9 10 1011.9 - 0.0 - - 10 - - - -
24/12:30am 20.5 N 8 8 1012.1 - 0.0 - - 10 - - - -
24/12:00am 22.3 NNE 9 11 1012.2 - 0.0 - - 10 - - - -
 
Date/Time
CDT
Temp

°C
Wind Pressure Rain
since 9am
mm
Weather Cloud Vis
km
Sea
Height
m
Swell
Dir
 
Speed
knots
Gust
knots
hPa Trend Height
m
Period
s
Dir
23/11:30pm 23.4 NE 9 11 1012.2 - 0.0 - - 10 - - - -
23/11:00pm 24.0 NE 10 11 1012.3 - 0.0 - - 10 - - - -
23/10:30pm 23.2 ENE 8 9 1012.4 - 0.0 - - 10 - - - -
23/10:00pm 22.4 NE 9 10 1012.7 - 0.0 - - 10 - - - -
23/09:30pm 21.2 ENE 8 10 1012.6 - 0.0 - - 10 - - - -
23/09:00pm 20.8 E 8 10 1012.6 - 0.0 - - 10 - - - -
23/08:30pm 20.8 E 9 11 1013.3 - 0.0 - - 10 - - - -
23/08:00pm 22.4 E 8 10 1012.7 - 0.0 - - 10 - - - -
23/07:30pm 23.7 E 8 13 1012.8 - 0.0 - - 10 - - - -
23/07:00pm 22.8 NE 7 10 1014.3 - 0.0 - - 10 - - - -
23/06:30pm 22.8 SE 6 9 1013.6 - 0.0 - - 10 - - - -
23/06:00pm 22.7 ESE 7 9 1013.4 - 0.0 - - 10 - - - -
23/05:30pm 23.5 ENE 8 11 1013.5 - 0.0 - - 10 - - - -
23/05:00pm 23.4 ESE 11 14 1012.8 - 0.0 - - 10 - - - -
23/04:30pm 22.4 ESE 13 16 1013.4 - 0.0 - - 10 - - - -
23/04:00pm 21.9 ESE 13 17 1013.7 - 0.0 - - 10 - - - -
23/03:30pm 21.7 SE 13 16 1013.8 - 0.0 - - 10 - - - -
23/03:00pm 21.7 S 17 21 1014.9 - 0.0 - - 10 - - - -
23/02:53pm 21.8 S 18 21 1015.1 - 0.0 - - 10 - - - -

Other Formats:

Comma delimited format used in spreadsheet applications
http://www.bom.gov.au/fwo/IDS60701/IDS60701.94651.axf

JavaScript Object Notation format (JSON) in row-major order
http://www.bom.gov.au/fwo/IDS60701/IDS60701.94651.json